This is the latest recevied weather packets stored in our database for station/object ED1ZAI-13. If no packets are shown the sender has not sent any weather packets the latest 10 day(s).
| Time | Temp. | Humidity | Pressure | Rain* | Wind** | Luminosity | Snow |
|---|---|---|---|---|---|---|---|
| 1777661098 | 15.56° C | 62% | 1018.8 hPa | 0 mm | - | - | - |
| 1777660498 | 16.11° C | 62% | 1018.4 hPa | 0 mm | - | - | - |
| 1777659898 | 17.22° C | 63% | 1018.3 hPa | 0 mm | - | - | - |
| 1777659298 | 16.67° C | 64% | 1018.2 hPa | 0 mm | - | - | - |
| 1777658699 | 16.67° C | 61% | 1018.1 hPa | 0 mm | - | - | - |
| 1777658099 | 16.67° C | 61% | 1018.1 hPa | 0 mm | - | - | - |
| 1777657498 | 16.67° C | 60% | 1018.1 hPa | 0 mm | - | - | - |
| 1777656898 | 17.22° C | 57% | 1018.1 hPa | 0 mm | - | - | - |
| 1777656298 | 17.78° C | 54% | 1018.3 hPa | 0 mm | - | - | - |
| 1777655698 | 17.78° C | 55% | 1018.3 hPa | 0 mm | - | - | - |
| 1777655098 | 18.89° C | 50% | 1018.4 hPa | 0 mm | - | - | - |
| 1777654498 | 18.89° C | 49% | 1018.6 hPa | 0 mm | - | - | - |
| 1777653899 | 19.44° C | 50% | 1018.3 hPa | 0 mm | - | - | - |
| 1777653299 | 18.33° C | 58% | 1018.4 hPa | 0 mm | - | - | - |
| 1777652699 | 21.11° C | 51% | 1018.4 hPa | 0 mm | - | - | - |
| 1777652099 | 20.56° C | 52% | 1018.3 hPa | 0 mm | - | - | - |
| 1777651498 | 20.56° C | 55% | 1018.3 hPa | 0 mm | - | - | - |
| 1777650898 | 18.33° C | 59% | 1018 hPa | 0 mm | - | - | - |
| 1777650298 | 20.56° C | 52% | 1018.1 hPa | 0 mm | - | - | - |
| 1777649699 | 20° C | 55% | 1017.9 hPa | 0 mm | - | - | - |
| 1777649099 | 18.89° C | 56% | 1017.9 hPa | 0 mm | - | - | - |
| 1777648499 | 18.89° C | 55% | 1017.8 hPa | 0 mm | - | - | - |
| 1777647899 | 16.67° C | 59% | 1018 hPa | 0 mm | - | - | - |
| 1777647298 | 18.33° C | 53% | 1017.4 hPa | 0 mm | - | - | - |
| 1777646699 | 20° C | 45% | 1017.4 hPa | 0 mm | - | - | - |
* Rain latest hour (hover to see other rain measurements)
** Current wind speed in m/s (hover to see current wind gust speed)